sensor_id;sensor_type;location;lat;lon;timestamp;P1;durP1;ratioP1;P2;durP2;ratioP2
16839;SDS011;8536;52.150;11.572;2022-09-21T00:01:07;1.92;;;0.88;;
16839;SDS011;8536;52.150;11.572;2022-09-21T00:03:58;2.35;;;0.90;;
16839;SDS011;8536;52.150;11.572;2022-09-21T00:06:29;1.75;;;0.73;;
16839;SDS011;8536;52.150;11.572;2022-09-21T00:08:57;1.38;;;0.73;;
16839;SDS011;8536;52.150;11.572;2022-09-21T00:11:28;3.38;;;1.13;;
16839;SDS011;8536;52.150;11.572;2022-09-21T00:13:56;2.03;;;0.90;;
16839;SDS011;8536;52.150;11.572;2022-09-21T00:16:26;1.63;;;0.70;;
16839;SDS011;8536;52.150;11.572;2022-09-21T00:18:53;3.42;;;0.98;;
16839;SDS011;8536;52.150;11.572;2022-09-21T00:21:20;1.05;;;0.88;;
16839;SDS011;8536;52.150;11.572;2022-09-21T00:23:47;2.88;;;0.82;;
16839;SDS011;8536;52.150;11.572;2022-09-21T00:26:15;2.65;;;0.80;;
16839;SDS011;8536;52.150;11.572;2022-09-21T00:28:43;2.30;;;0.80;;
16839;SDS011;8536;52.150;11.572;2022-09-21T00:31:11;4.45;;;1.08;;
16839;SDS011;8536;52.150;11.572;2022-09-21T00:33:40;2.00;;;0.90;;
16839;SDS011;8536;52.150;11.572;2022-09-21T00:36:08;1.20;;;0.73;;
16839;SDS011;8536;52.150;11.572;2022-09-21T00:38:37;2.83;;;0.70;;
16839;SDS011;8536;52.150;11.572;2022-09-21T00:41:04;1.88;;;0.70;;
16839;SDS011;8536;52.150;11.572;2022-09-21T00:43:33;2.22;;;0.80;;
16839;SDS011;8536;52.150;11.572;2022-09-21T00:46:04;2.85;;;0.80;;
16839;SDS011;8536;52.150;11.572;2022-09-21T00:48:32;1.45;;;0.68;;
16839;SDS011;8536;52.150;11.572;2022-09-21T00:51:00;2.08;;;0.70;;
16839;SDS011;8536;52.150;11.572;2022-09-21T00:53:29;0.93;;;0.60;;
16839;SDS011;8536;52.150;11.572;2022-09-21T00:55:57;1.77;;;0.98;;
16839;SDS011;8536;52.150;11.572;2022-09-21T00:58:27;2.25;;;1.08;;
16839;SDS011;8536;52.150;11.572;2022-09-21T01:00:56;1.67;;;0.70;;
16839;SDS011;8536;52.150;11.572;2022-09-21T01:03:24;2.67;;;0.65;;
16839;SDS011;8536;52.150;11.572;2022-09-21T01:05:50;2.10;;;0.90;;
16839;SDS011;8536;52.150;11.572;2022-09-21T01:08:17;2.35;;;0.90;;
16839;SDS011;8536;52.150;11.572;2022-09-21T01:10:58;1.90;;;0.75;;
16839;SDS011;8536;52.150;11.572;2022-09-21T01:21:53;2.35;;;0.70;;
16839;SDS011;8536;52.150;11.572;2022-09-21T01:24:35;2.25;;;1.00;;
16839;SDS011;8536;52.150;11.572;2022-09-21T01:29:48;2.88;;;1.10;;
16839;SDS011;8536;52.150;11.572;2022-09-21T01:32:24;2.33;;;0.75;;
16839;SDS011;8536;52.150;11.572;2022-09-21T01:35:02;1.25;;;0.80;;
16839;SDS011;8536;52.150;11.572;2022-09-21T01:37:37;1.02;;;0.82;;
16839;SDS011;8536;52.150;11.572;2022-09-21T01:40:08;3.72;;;0.90;;
16839;SDS011;8536;52.150;11.572;2022-09-21T01:42:38;1.48;;;0.80;;
16839;SDS011;8536;52.150;11.572;2022-09-21T01:45:06;2.30;;;1.05;;
16839;SDS011;8536;52.150;11.572;2022-09-21T01:47:34;1.80;;;0.90;;
16839;SDS011;8536;52.150;11.572;2022-09-21T01:50:03;1.83;;;0.80;;
16839;SDS011;8536;52.150;11.572;2022-09-21T01:55:13;1.55;;;1.08;;
16839;SDS011;8536;52.150;11.572;2022-09-21T01:57:42;2.65;;;0.90;;
16839;SDS011;8536;52.150;11.572;2022-09-21T02:00:13;2.70;;;1.10;;
16839;SDS011;8536;52.150;11.572;2022-09-21T02:05:13;1.83;;;1.10;;
16839;SDS011;8536;52.150;11.572;2022-09-21T02:07:41;1.20;;;0.90;;
16839;SDS011;8536;52.150;11.572;2022-09-21T02:10:08;2.00;;;1.20;;
16839;SDS011;8536;52.150;11.572;2022-09-21T02:12:40;6.22;;;1.10;;
16839;SDS011;8536;52.150;11.572;2022-09-21T02:15:07;1.08;;;0.90;;
16839;SDS011;8536;52.150;11.572;2022-09-21T02:17:49;1.50;;;1.08;;
16839;SDS011;8536;52.150;11.572;2022-09-21T02:20:27;2.38;;;1.00;;
16839;SDS011;8536;52.150;11.572;2022-09-21T02:31:35;1.77;;;0.95;;
16839;SDS011;8536;52.150;11.572;2022-09-21T02:37:02;2.70;;;0.90;;
16839;SDS011;8536;52.150;11.572;2022-09-21T02:39:42;1.65;;;1.02;;
16839;SDS011;8536;52.150;11.572;2022-09-21T02:42:19;3.05;;;1.05;;
16839;SDS011;8536;52.150;11.572;2022-09-21T02:44:57;5.70;;;1.40;;
16839;SDS011;8536;52.150;11.572;2022-09-21T02:47:40;2.80;;;1.40;;
16839;SDS011;8536;52.150;11.572;2022-09-21T02:50:13;2.90;;;1.17;;
16839;SDS011;8536;52.150;11.572;2022-09-21T02:52:43;3.13;;;1.40;;
16839;SDS011;8536;52.150;11.572;2022-09-21T02:55:09;3.38;;;1.60;;
16839;SDS011;8536;52.150;11.572;2022-09-21T02:57:36;2.45;;;1.20;;
16839;SDS011;8536;52.150;11.572;2022-09-21T03:00:04;2.67;;;1.20;;
16839;SDS011;8536;52.150;11.572;2022-09-21T03:02:35;2.95;;;1.40;;
16839;SDS011;8536;52.150;11.572;2022-09-21T03:05:06;1.77;;;1.42;;
16839;SDS011;8536;52.150;11.572;2022-09-21T03:07:33;2.42;;;1.30;;
16839;SDS011;8536;52.150;11.572;2022-09-21T03:09:59;2.67;;;1.30;;
16839;SDS011;8536;52.150;11.572;2022-09-21T03:12:26;3.00;;;1.40;;
16839;SDS011;8536;52.150;11.572;2022-09-21T03:14:53;1.45;;;1.20;;
16839;SDS011;8536;52.150;11.572;2022-09-21T03:17:19;3.60;;;1.30;;
16839;SDS011;8536;52.150;11.572;2022-09-21T03:19:45;3.95;;;1.50;;
16839;SDS011;8536;52.150;11.572;2022-09-21T03:22:12;5.30;;;1.42;;
16839;SDS011;8536;52.150;11.572;2022-09-21T03:24:38;4.82;;;1.30;;
16839;SDS011;8536;52.150;11.572;2022-09-21T03:27:11;3.17;;;1.38;;
16839;SDS011;8536;52.150;11.572;2022-09-21T03:29:41;4.95;;;1.50;;
16839;SDS011;8536;52.150;11.572;2022-09-21T03:32:08;3.05;;;1.90;;
16839;SDS011;8536;52.150;11.572;2022-09-21T03:34:35;3.65;;;2.40;;
16839;SDS011;8536;52.150;11.572;2022-09-21T03:37:03;3.08;;;1.77;;
16839;SDS011;8536;52.150;11.572;2022-09-21T03:39:30;2.20;;;1.70;;
16839;SDS011;8536;52.150;11.572;2022-09-21T03:41:57;3.67;;;1.90;;
16839;SDS011;8536;52.150;11.572;2022-09-21T03:44:24;2.17;;;1.40;;
16839;SDS011;8536;52.150;11.572;2022-09-21T03:46:52;3.10;;;1.52;;
16839;SDS011;8536;52.150;11.572;2022-09-21T03:49:18;2.92;;;1.75;;
16839;SDS011;8536;52.150;11.572;2022-09-21T03:51:45;2.72;;;1.95;;
16839;SDS011;8536;52.150;11.572;2022-09-21T03:54:11;2.38;;;1.42;;
16839;SDS011;8536;52.150;11.572;2022-09-21T03:56:38;2.30;;;1.30;;
16839;SDS011;8536;52.150;11.572;2022-09-21T03:59:04;4.40;;;1.60;;
16839;SDS011;8536;52.150;11.572;2022-09-21T04:01:36;2.20;;;1.52;;
16839;SDS011;8536;52.150;11.572;2022-09-21T04:04:03;2.15;;;1.70;;
16839;SDS011;8536;52.150;11.572;2022-09-21T04:06:30;2.60;;;1.35;;
16839;SDS011;8536;52.150;11.572;2022-09-21T04:08:56;3.53;;;1.80;;
16839;SDS011;8536;52.150;11.572;2022-09-21T04:11:23;6.82;;;2.25;;
16839;SDS011;8536;52.150;11.572;2022-09-21T04:13:49;3.83;;;1.92;;
16839;SDS011;8536;52.150;11.572;2022-09-21T04:16:22;2.55;;;1.90;;
16839;SDS011;8536;52.150;11.572;2022-09-21T04:18:49;4.18;;;1.85;;
16839;SDS011;8536;52.150;11.572;2022-09-21T04:21:16;5.22;;;2.50;;
16839;SDS011;8536;52.150;11.572;2022-09-21T04:23:45;4.65;;;2.05;;
16839;SDS011;8536;52.150;11.572;2022-09-21T04:29:06;3.65;;;1.80;;
16839;SDS011;8536;52.150;11.572;2022-09-21T04:31:32;5.43;;;2.10;;
16839;SDS011;8536;52.150;11.572;2022-09-21T04:33:59;5.30;;;2.40;;
16839;SDS011;8536;52.150;11.572;2022-09-21T04:36:26;4.10;;;2.08;;
16839;SDS011;8536;52.150;11.572;2022-09-21T04:38:53;4.32;;;2.40;;
16839;SDS011;8536;52.150;11.572;2022-09-21T04:41:20;3.65;;;2.05;;
16839;SDS011;8536;52.150;11.572;2022-09-21T04:43:46;3.40;;;2.10;;
16839;SDS011;8536;52.150;11.572;2022-09-21T04:46:14;4.15;;;2.13;;
16839;SDS011;8536;52.150;11.572;2022-09-21T04:48:42;2.20;;;1.80;;
16839;SDS011;8536;52.150;11.572;2022-09-21T04:51:08;4.97;;;2.15;;
16839;SDS011;8536;52.150;11.572;2022-09-21T04:53:36;5.22;;;2.83;;
16839;SDS011;8536;52.150;11.572;2022-09-21T04:56:03;4.82;;;2.65;;
16839;SDS011;8536;52.150;11.572;2022-09-21T04:58:31;4.15;;;2.83;;
16839;SDS011;8536;52.150;11.572;2022-09-21T05:00:58;7.35;;;2.92;;
16839;SDS011;8536;52.150;11.572;2022-09-21T05:03:25;3.50;;;2.63;;
16839;SDS011;8536;52.150;11.572;2022-09-21T05:05:52;5.43;;;2.95;;
16839;SDS011;8536;52.150;11.572;2022-09-21T05:08:20;7.38;;;3.50;;
16839;SDS011;8536;52.150;11.572;2022-09-21T05:11:06;5.82;;;3.25;;
16839;SDS011;8536;52.150;11.572;2022-09-21T05:13:32;5.50;;;2.90;;
16839;SDS011;8536;52.150;11.572;2022-09-21T05:15:59;7.05;;;3.50;;
16839;SDS011;8536;52.150;11.572;2022-09-21T05:18:25;5.63;;;3.35;;
16839;SDS011;8536;52.150;11.572;2022-09-21T05:20:55;3.70;;;2.70;;
16839;SDS011;8536;52.150;11.572;2022-09-21T05:23:22;6.00;;;3.17;;
16839;SDS011;8536;52.150;11.572;2022-09-21T05:25:49;6.35;;;4.25;;
16839;SDS011;8536;52.150;11.572;2022-09-21T05:28:16;6.07;;;3.30;;
16839;SDS011;8536;52.150;11.572;2022-09-21T05:30:44;6.43;;;3.65;;
16839;SDS011;8536;52.150;11.572;2022-09-21T05:33:31;6.65;;;3.42;;
16839;SDS011;8536;52.150;11.572;2022-09-21T05:38:37;8.77;;;3.50;;
16839;SDS011;8536;52.150;11.572;2022-09-21T05:41:04;8.88;;;4.05;;
16839;SDS011;8536;52.150;11.572;2022-09-21T05:43:31;7.65;;;3.72;;
16839;SDS011;8536;52.150;11.572;2022-09-21T05:46:02;8.82;;;4.43;;
16839;SDS011;8536;52.150;11.572;2022-09-21T05:49:29;6.90;;;4.20;;
16839;SDS011;8536;52.150;11.572;2022-09-21T05:54:51;6.18;;;4.85;;
16839;SDS011;8536;52.150;11.572;2022-09-21T05:57:27;10.50;;;5.93;;
16839;SDS011;8536;52.150;11.572;2022-09-21T06:05:09;5.85;;;4.28;;
16839;SDS011;8536;52.150;11.572;2022-09-21T06:07:37;6.85;;;3.90;;
16839;SDS011;8536;52.150;11.572;2022-09-21T06:10:03;5.22;;;4.00;;
16839;SDS011;8536;52.150;11.572;2022-09-21T06:12:30;8.35;;;4.75;;
16839;SDS011;8536;52.150;11.572;2022-09-21T06:14:57;5.30;;;3.35;;
16839;SDS011;8536;52.150;11.572;2022-09-21T06:17:23;4.35;;;3.50;;
16839;SDS011;8536;52.150;11.572;2022-09-21T06:19:52;9.75;;;4.30;;
16839;SDS011;8536;52.150;11.572;2022-09-21T06:22:19;5.65;;;3.80;;
16839;SDS011;8536;52.150;11.572;2022-09-21T06:24:45;6.57;;;3.75;;
16839;SDS011;8536;52.150;11.572;2022-09-21T06:27:12;6.55;;;3.72;;
16839;SDS011;8536;52.150;11.572;2022-09-21T06:29:38;5.00;;;3.42;;
16839;SDS011;8536;52.150;11.572;2022-09-21T06:32:04;4.90;;;3.42;;
16839;SDS011;8536;52.150;11.572;2022-09-21T06:34:31;6.05;;;3.60;;
16839;SDS011;8536;52.150;11.572;2022-09-21T06:36:57;4.35;;;3.30;;
16839;SDS011;8536;52.150;11.572;2022-09-21T06:39:24;5.45;;;3.67;;
16839;SDS011;8536;52.150;11.572;2022-09-21T06:41:50;4.80;;;3.33;;
16839;SDS011;8536;52.150;11.572;2022-09-21T06:44:17;6.28;;;3.17;;
16839;SDS011;8536;52.150;11.572;2022-09-21T06:46:43;6.53;;;3.50;;
16839;SDS011;8536;52.150;11.572;2022-09-21T06:49:10;5.80;;;3.70;;
16839;SDS011;8536;52.150;11.572;2022-09-21T06:51:36;6.55;;;3.78;;
16839;SDS011;8536;52.150;11.572;2022-09-21T06:54:03;6.97;;;3.67;;
16839;SDS011;8536;52.150;11.572;2022-09-21T06:56:29;4.72;;;3.42;;
16839;SDS011;8536;52.150;11.572;2022-09-21T06:58:56;5.85;;;4.13;;
16839;SDS011;8536;52.150;11.572;2022-09-21T07:01:22;6.07;;;3.42;;
16839;SDS011;8536;52.150;11.572;2022-09-21T07:03:50;6.50;;;3.58;;
16839;SDS011;8536;52.150;11.572;2022-09-21T07:06:17;10.45;;;3.03;;
16839;SDS011;8536;52.150;11.572;2022-09-21T07:08:43;4.72;;;2.92;;
16839;SDS011;8536;52.150;11.572;2022-09-21T07:11:30;6.95;;;3.80;;
16839;SDS011;8536;52.150;11.572;2022-09-21T07:13:57;3.95;;;2.80;;
16839;SDS011;8536;52.150;11.572;2022-09-21T07:16:23;3.70;;;2.42;;
16839;SDS011;8536;52.150;11.572;2022-09-21T07:18:50;4.18;;;2.97;;
16839;SDS011;8536;52.150;11.572;2022-09-21T07:21:16;6.28;;;2.80;;
16839;SDS011;8536;52.150;11.572;2022-09-21T07:23:42;4.50;;;2.65;;
16839;SDS011;8536;52.150;11.572;2022-09-21T07:26:10;6.15;;;2.70;;
16839;SDS011;8536;52.150;11.572;2022-09-21T07:28:38;6.10;;;2.50;;
16839;SDS011;8536;52.150;11.572;2022-09-21T07:31:05;4.47;;;2.33;;
16839;SDS011;8536;52.150;11.572;2022-09-21T07:33:33;3.88;;;2.17;;
16839;SDS011;8536;52.150;11.572;2022-09-21T07:36:01;4.38;;;1.65;;
16839;SDS011;8536;52.150;11.572;2022-09-21T07:38:39;4.10;;;1.92;;
16839;SDS011;8536;52.150;11.572;2022-09-21T07:41:07;5.15;;;1.90;;
16839;SDS011;8536;52.150;11.572;2022-09-21T07:43:34;2.63;;;1.60;;
16839;SDS011;8536;52.150;11.572;2022-09-21T07:46:00;4.00;;;2.10;;
16839;SDS011;8536;52.150;11.572;2022-09-21T07:48:27;5.10;;;2.30;;
16839;SDS011;8536;52.150;11.572;2022-09-21T07:50:54;5.30;;;1.60;;
16839;SDS011;8536;52.150;11.572;2022-09-21T07:53:22;2.78;;;1.67;;
16839;SDS011;8536;52.150;11.572;2022-09-21T07:55:49;6.93;;;2.00;;
16839;SDS011;8536;52.150;11.572;2022-09-21T07:58:15;2.85;;;1.80;;
16839;SDS011;8536;52.150;11.572;2022-09-21T08:01:03;2.83;;;1.92;;
16839;SDS011;8536;52.150;11.572;2022-09-21T08:03:31;5.13;;;2.63;;
16839;SDS011;8536;52.150;11.572;2022-09-21T08:05:58;3.00;;;1.70;;
16839;SDS011;8536;52.150;11.572;2022-09-21T08:08:24;4.30;;;2.00;;
16839;SDS011;8536;52.150;11.572;2022-09-21T08:10:51;3.45;;;1.95;;
16839;SDS011;8536;52.150;11.572;2022-09-21T08:13:19;2.90;;;1.83;;
16839;SDS011;8536;52.150;11.572;2022-09-21T08:15:45;5.35;;;2.10;;
16839;SDS011;8536;52.150;11.572;2022-09-21T08:18:15;3.20;;;1.75;;
16839;SDS011;8536;52.150;11.572;2022-09-21T08:20:41;4.20;;;2.03;;
16839;SDS011;8536;52.150;11.572;2022-09-21T08:23:08;5.13;;;2.22;;
16839;SDS011;8536;52.150;11.572;2022-09-21T08:25:35;4.63;;;2.00;;
16839;SDS011;8536;52.150;11.572;2022-09-21T08:28:02;7.90;;;2.42;;
16839;SDS011;8536;52.150;11.572;2022-09-21T08:30:34;4.32;;;2.25;;
16839;SDS011;8536;52.150;11.572;2022-09-21T08:33:01;6.18;;;2.30;;
16839;SDS011;8536;52.150;11.572;2022-09-21T08:35:28;4.18;;;1.85;;
16839;SDS011;8536;52.150;11.572;2022-09-21T08:37:54;2.75;;;2.15;;
16839;SDS011;8536;52.150;11.572;2022-09-21T08:40:21;2.80;;;1.95;;
16839;SDS011;8536;52.150;11.572;2022-09-21T08:42:51;3.17;;;2.22;;
16839;SDS011;8536;52.150;11.572;2022-09-21T08:45:29;2.83;;;1.80;;
16839;SDS011;8536;52.150;11.572;2022-09-21T08:47:59;2.47;;;2.00;;
16839;SDS011;8536;52.150;11.572;2022-09-21T08:50:38;4.70;;;2.50;;
16839;SDS011;8536;52.150;11.572;2022-09-21T08:53:12;4.22;;;2.20;;
16839;SDS011;8536;52.150;11.572;2022-09-21T08:55:40;5.20;;;3.10;;
16839;SDS011;8536;52.150;11.572;2022-09-21T08:58:20;4.88;;;2.28;;
16839;SDS011;8536;52.150;11.572;2022-09-21T09:03:57;3.80;;;2.13;;
16839;SDS011;8536;52.150;11.572;2022-09-21T09:09:24;3.45;;;2.47;;
16839;SDS011;8536;52.150;11.572;2022-09-21T09:15:13;3.92;;;3.17;;
16839;SDS011;8536;52.150;11.572;2022-09-21T09:17:53;4.75;;;3.10;;
16839;SDS011;8536;52.150;11.572;2022-09-21T09:20:32;6.47;;;3.05;;
16839;SDS011;8536;52.150;11.572;2022-09-21T09:23:06;3.40;;;2.28;;
16839;SDS011;8536;52.150;11.572;2022-09-21T09:25:37;3.20;;;2.53;;
16839;SDS011;8536;52.150;11.572;2022-09-21T09:28:13;2.97;;;2.25;;
16839;SDS011;8536;52.150;11.572;2022-09-21T09:31:09;4.25;;;2.08;;
16839;SDS011;8536;52.150;11.572;2022-09-21T09:33:47;3.05;;;1.60;;
16839;SDS011;8536;52.150;11.572;2022-09-21T09:36:18;1.92;;;1.45;;
16839;SDS011;8536;52.150;11.572;2022-09-21T09:39:09;3.78;;;1.98;;
16839;SDS011;8536;52.150;11.572;2022-09-21T09:44:31;2.97;;;2.10;;
16839;SDS011;8536;52.150;11.572;2022-09-21T09:50:10;2.47;;;2.28;;
16839;SDS011;8536;52.150;11.572;2022-09-21T09:52:39;2.85;;;2.60;;
16839;SDS011;8536;52.150;11.572;2022-09-21T09:55:14;3.30;;;2.30;;
16839;SDS011;8536;52.150;11.572;2022-09-21T09:57:45;3.17;;;2.20;;
16839;SDS011;8536;52.150;11.572;2022-09-21T10:00:13;2.28;;;2.08;;
16839;SDS011;8536;52.150;11.572;2022-09-21T10:02:51;3.47;;;2.40;;
16839;SDS011;8536;52.150;11.572;2022-09-21T10:05:23;3.55;;;2.40;;
16839;SDS011;8536;52.150;11.572;2022-09-21T10:07:56;4.13;;;2.55;;
16839;SDS011;8536;52.150;11.572;2022-09-21T10:13:05;3.25;;;2.20;;
16839;SDS011;8536;52.150;11.572;2022-09-21T10:15:44;3.88;;;2.00;;
16839;SDS011;8536;52.150;11.572;2022-09-21T10:18:15;2.00;;;1.48;;
16839;SDS011;8536;52.150;11.572;2022-09-21T10:20:54;1.80;;;1.70;;
16839;SDS011;8536;52.150;11.572;2022-09-21T10:23:22;2.13;;;1.90;;
16839;SDS011;8536;52.150;11.572;2022-09-21T10:25:59;1.80;;;1.48;;
16839;SDS011;8536;52.150;11.572;2022-09-21T10:28:28;3.63;;;1.50;;
16839;SDS011;8536;52.150;11.572;2022-09-21T10:36:36;0.80;;;0.73;;
16839;SDS011;8536;52.150;11.572;2022-09-21T10:39:37;1.15;;;0.77;;
16839;SDS011;8536;52.150;11.572;2022-09-21T10:44:28;0.90;;;0.43;;
16839;SDS011;8536;52.150;11.572;2022-09-21T10:47:01;0.70;;;0.70;;
16839;SDS011;8536;52.150;11.572;2022-09-21T10:49:43;1.40;;;0.70;;
16839;SDS011;8536;52.150;11.572;2022-09-21T10:52:12;0.70;;;0.70;;
16839;SDS011;8536;52.150;11.572;2022-09-21T10:54:39;1.00;;;0.60;;
16839;SDS011;8536;52.150;11.572;2022-09-21T10:57:07;0.75;;;0.70;;
16839;SDS011;8536;52.150;11.572;2022-09-21T10:59:35;1.40;;;0.80;;
16839;SDS011;8536;52.150;11.572;2022-09-21T11:02:22;1.42;;;0.90;;
16839;SDS011;8536;52.150;11.572;2022-09-21T11:05:10;1.33;;;0.82;;
16839;SDS011;8536;52.150;11.572;2022-09-21T11:07:48;0.60;;;0.60;;
16839;SDS011;8536;52.150;11.572;2022-09-21T11:10:20;1.00;;;0.80;;
16839;SDS011;8536;52.150;11.572;2022-09-21T11:13:04;3.03;;;0.90;;
16839;SDS011;8536;52.150;11.572;2022-09-21T11:15:50;1.65;;;0.82;;
16839;SDS011;8536;52.150;11.572;2022-09-21T11:18:22;0.90;;;0.73;;
16839;SDS011;8536;52.150;11.572;2022-09-21T11:21:00;1.08;;;0.50;;
16839;SDS011;8536;52.150;11.572;2022-09-21T11:29:09;0.93;;;0.63;;
16839;SDS011;8536;52.150;11.572;2022-09-21T11:31:46;1.95;;;0.85;;
16839;SDS011;8536;52.150;11.572;2022-09-21T11:34:48;0.70;;;0.70;;
16839;SDS011;8536;52.150;11.572;2022-09-21T11:38:02;1.02;;;0.70;;
16839;SDS011;8536;52.150;11.572;2022-09-21T11:40:27;0.52;;;0.52;;
16839;SDS011;8536;52.150;11.572;2022-09-21T11:51:03;0.52;;;0.30;;
16839;SDS011;8536;52.150;11.572;2022-09-21T12:11:29;0.38;;;0.35;;
16839;SDS011;8536;52.150;11.572;2022-09-21T12:14:10;0.30;;;0.30;;
16839;SDS011;8536;52.150;11.572;2022-09-21T12:16:48;1.05;;;0.40;;
16839;SDS011;8536;52.150;11.572;2022-09-21T12:19:45;0.73;;;0.50;;
16839;SDS011;8536;52.150;11.572;2022-09-21T12:22:37;0.30;;;0.30;;
16839;SDS011;8536;52.150;11.572;2022-09-21T12:27:37;0.90;;;0.30;;
16839;SDS011;8536;52.150;11.572;2022-09-21T12:30:09;0.60;;;0.40;;
16839;SDS011;8536;52.150;11.572;2022-09-21T12:35:27;1.65;;;0.43;;
16839;SDS011;8536;52.150;11.572;2022-09-21T12:38:02;0.28;;;0.22;;
16839;SDS011;8536;52.150;11.572;2022-09-21T12:40:38;0.40;;;0.40;;
16839;SDS011;8536;52.150;11.572;2022-09-21T12:46:12;0.30;;;0.30;;
16839;SDS011;8536;52.150;11.572;2022-09-21T12:48:41;0.52;;;0.20;;
16839;SDS011;8536;52.150;11.572;2022-09-21T12:51:16;0.30;;;0.30;;
16839;SDS011;8536;52.150;11.572;2022-09-21T12:53:47;0.63;;;0.43;;
16839;SDS011;8536;52.150;11.572;2022-09-21T12:59:03;0.40;;;0.30;;
16839;SDS011;8536;52.150;11.572;2022-09-21T13:01:36;0.35;;;0.30;;
16839;SDS011;8536;52.150;11.572;2022-09-21T13:07:16;1.08;;;0.40;;
16839;SDS011;8536;52.150;11.572;2022-09-21T13:09:43;0.30;;;0.30;;
16839;SDS011;8536;52.150;11.572;2022-09-21T13:14:49;0.47;;;0.30;;
16839;SDS011;8536;52.150;11.572;2022-09-21T13:17:22;0.43;;;0.35;;
16839;SDS011;8536;52.150;11.572;2022-09-21T13:19:54;0.43;;;0.43;;
16839;SDS011;8536;52.150;11.572;2022-09-21T13:22:23;1.73;;;0.60;;
16839;SDS011;8536;52.150;11.572;2022-09-21T13:24:59;0.90;;;0.40;;
16839;SDS011;8536;52.150;11.572;2022-09-21T13:38:23;1.02;;;0.47;;
16839;SDS011;8536;52.150;11.572;2022-09-21T13:55:02;0.80;;;0.40;;
16839;SDS011;8536;52.150;11.572;2022-09-21T13:57:34;0.40;;;0.40;;
16839;SDS011;8536;52.150;11.572;2022-09-21T14:02:43;0.38;;;0.38;;
16839;SDS011;8536;52.150;11.572;2022-09-21T14:05:34;0.40;;;0.40;;
16839;SDS011;8536;52.150;11.572;2022-09-21T14:08:16;0.90;;;0.40;;
16839;SDS011;8536;52.150;11.572;2022-09-21T14:13:34;0.30;;;0.30;;
16839;SDS011;8536;52.150;11.572;2022-09-21T14:19:03;0.40;;;0.40;;
16839;SDS011;8536;52.150;11.572;2022-09-21T14:24:34;0.40;;;0.40;;
16839;SDS011;8536;52.150;11.572;2022-09-21T14:27:49;0.47;;;0.40;;
16839;SDS011;8536;52.150;11.572;2022-09-21T14:30:00;1.27;;;0.50;;
16839;SDS011;8536;52.150;11.572;2022-09-21T14:32:43;1.38;;;0.50;;
16839;SDS011;8536;52.150;11.572;2022-09-21T14:35:14;1.20;;;1.10;;
16839;SDS011;8536;52.150;11.572;2022-09-21T14:37:45;4.65;;;3.15;;
16839;SDS011;8536;52.150;11.572;2022-09-21T14:40:23;3.78;;;2.78;;
16839;SDS011;8536;52.150;11.572;2022-09-21T14:42:53;1.35;;;0.90;;
16839;SDS011;8536;52.150;11.572;2022-09-21T14:45:23;0.47;;;0.47;;
16839;SDS011;8536;52.150;11.572;2022-09-21T14:56:59;1.30;;;0.80;;
16839;SDS011;8536;52.150;11.572;2022-09-21T14:59:41;1.30;;;0.80;;
16839;SDS011;8536;52.150;11.572;2022-09-21T15:02:16;1.42;;;0.90;;
16839;SDS011;8536;52.150;11.572;2022-09-21T15:04:58;0.45;;;0.40;;
16839;SDS011;8536;52.150;11.572;2022-09-21T15:13:29;1.70;;;0.77;;
16839;SDS011;8536;52.150;11.572;2022-09-21T15:18:59;0.55;;;0.55;;
16839;SDS011;8536;52.150;11.572;2022-09-21T15:21:31;0.60;;;0.60;;
16839;SDS011;8536;52.150;11.572;2022-09-21T15:23:58;0.75;;;0.40;;
16839;SDS011;8536;52.150;11.572;2022-09-21T15:26:27;1.30;;;0.50;;
16839;SDS011;8536;52.150;11.572;2022-09-21T15:28:56;1.48;;;0.65;;
16839;SDS011;8536;52.150;11.572;2022-09-21T15:31:39;1.27;;;0.50;;
16839;SDS011;8536;52.150;11.572;2022-09-21T15:34:07;0.50;;;0.50;;
16839;SDS011;8536;52.150;11.572;2022-09-21T15:36:36;0.60;;;0.60;;
16839;SDS011;8536;52.150;11.572;2022-09-21T15:39:04;0.70;;;0.50;;
16839;SDS011;8536;52.150;11.572;2022-09-21T15:41:41;2.20;;;0.70;;
16839;SDS011;8536;52.150;11.572;2022-09-21T15:44:22;0.70;;;0.68;;
16839;SDS011;8536;52.150;11.572;2022-09-21T15:46:52;1.80;;;0.70;;
16839;SDS011;8536;52.150;11.572;2022-09-21T15:49:26;1.50;;;0.80;;
16839;SDS011;8536;52.150;11.572;2022-09-21T15:51:55;0.70;;;0.70;;
16839;SDS011;8536;52.150;11.572;2022-09-21T15:54:41;0.75;;;0.75;;
16839;SDS011;8536;52.150;11.572;2022-09-21T16:00:06;1.20;;;0.68;;
16839;SDS011;8536;52.150;11.572;2022-09-21T16:02:53;4.80;;;0.98;;
16839;SDS011;8536;52.150;11.572;2022-09-21T16:05:31;0.73;;;0.73;;
16839;SDS011;8536;52.150;11.572;2022-09-21T16:08:06;1.52;;;0.75;;
16839;SDS011;8536;52.150;11.572;2022-09-21T16:10:52;1.65;;;0.90;;
16839;SDS011;8536;52.150;11.572;2022-09-21T16:13:19;0.60;;;0.60;;
16839;SDS011;8536;52.150;11.572;2022-09-21T16:16:10;1.00;;;0.68;;
16839;SDS011;8536;52.150;11.572;2022-09-21T16:23:49;2.33;;;0.63;;
16839;SDS011;8536;52.150;11.572;2022-09-21T16:26:17;1.02;;;0.63;;
16839;SDS011;8536;52.150;11.572;2022-09-21T16:28:47;1.67;;;0.52;;
16839;SDS011;8536;52.150;11.572;2022-09-21T16:38:57;1.73;;;0.70;;
16839;SDS011;8536;52.150;11.572;2022-09-21T16:41:35;3.25;;;0.57;;
16839;SDS011;8536;52.150;11.572;2022-09-21T16:44:02;2.38;;;0.77;;
16839;SDS011;8536;52.150;11.572;2022-09-21T16:46:28;3.10;;;0.80;;
16839;SDS011;8536;52.150;11.572;2022-09-21T16:48:57;1.73;;;1.05;;
16839;SDS011;8536;52.150;11.572;2022-09-21T16:51:25;2.30;;;0.90;;
16839;SDS011;8536;52.150;11.572;2022-09-21T16:53:53;1.95;;;0.80;;
16839;SDS011;8536;52.150;11.572;2022-09-21T16:56:20;1.88;;;0.68;;
16839;SDS011;8536;52.150;11.572;2022-09-21T16:58:47;1.15;;;0.95;;
16839;SDS011;8536;52.150;11.572;2022-09-21T17:01:14;3.08;;;1.10;;
16839;SDS011;8536;52.150;11.572;2022-09-21T17:03:43;1.30;;;0.80;;
16839;SDS011;8536;52.150;11.572;2022-09-21T17:06:16;0.60;;;0.50;;
16839;SDS011;8536;52.150;11.572;2022-09-21T17:08:44;1.65;;;0.75;;
16839;SDS011;8536;52.150;11.572;2022-09-21T17:11:14;1.30;;;0.82;;
16839;SDS011;8536;52.150;11.572;2022-09-21T17:13:48;0.85;;;0.68;;
16839;SDS011;8536;52.150;11.572;2022-09-21T17:16:15;0.93;;;0.88;;
16839;SDS011;8536;52.150;11.572;2022-09-21T17:18:43;0.60;;;0.60;;
16839;SDS011;8536;52.150;11.572;2022-09-21T17:21:11;0.68;;;0.57;;
16839;SDS011;8536;52.150;11.572;2022-09-21T17:23:37;1.52;;;0.50;;
16839;SDS011;8536;52.150;11.572;2022-09-21T17:26:09;0.93;;;0.40;;
16839;SDS011;8536;52.150;11.572;2022-09-21T17:28:40;0.57;;;0.52;;
16839;SDS011;8536;52.150;11.572;2022-09-21T17:31:13;0.60;;;0.50;;
16839;SDS011;8536;52.150;11.572;2022-09-21T17:33:41;0.70;;;0.60;;
16839;SDS011;8536;52.150;11.572;2022-09-21T17:36:11;0.95;;;0.47;;
16839;SDS011;8536;52.150;11.572;2022-09-21T17:38:38;0.68;;;0.50;;
16839;SDS011;8536;52.150;11.572;2022-09-21T17:41:05;0.50;;;0.50;;
16839;SDS011;8536;52.150;11.572;2022-09-21T17:43:47;0.73;;;0.52;;
16839;SDS011;8536;52.150;11.572;2022-09-21T17:46:21;0.90;;;0.52;;
16839;SDS011;8536;52.150;11.572;2022-09-21T17:49:13;0.50;;;0.40;;
16839;SDS011;8536;52.150;11.572;2022-09-21T17:51:39;0.65;;;0.52;;
16839;SDS011;8536;52.150;11.572;2022-09-21T17:54:24;0.80;;;0.60;;
16839;SDS011;8536;52.150;11.572;2022-09-21T17:56:53;0.52;;;0.52;;
16839;SDS011;8536;52.150;11.572;2022-09-21T17:59:31;0.98;;;0.80;;
16839;SDS011;8536;52.150;11.572;2022-09-21T18:01:59;1.30;;;0.70;;
16839;SDS011;8536;52.150;11.572;2022-09-21T18:04:27;0.60;;;0.60;;
16839;SDS011;8536;52.150;11.572;2022-09-21T18:06:55;0.95;;;0.60;;
16839;SDS011;8536;52.150;11.572;2022-09-21T18:09:22;0.68;;;0.50;;
16839;SDS011;8536;52.150;11.572;2022-09-21T18:11:58;0.60;;;0.50;;
16839;SDS011;8536;52.150;11.572;2022-09-21T18:14:42;1.33;;;0.90;;
16839;SDS011;8536;52.150;11.572;2022-09-21T18:22:37;1.58;;;1.02;;
16839;SDS011;8536;52.150;11.572;2022-09-21T18:25:27;2.35;;;1.20;;